Wetterdaten: aktuell Samstag, 25.05.2024 12:25
Datum Zeit Arbeit-Z. Temp. A. Bod.+5cm Temp. A. min Temp. A. max Bl.Temp +1m BTemp -5cm BTemp -10cm BTemp -20cm BTemp -50cm Feuchte I. Feuchte A. BlattFeu +1m BFeucht -5cm BFeucht-10cm BFeucht-20cm BFeucht-50cm Luftdruck Regen Wind Richtung Richtung Sonnenschein ET UV Solar Taupunkt Windchill Windben Empfang
25.05.2024 12:25 21,7 C 19,4 C 18,3 C 19,4 C 19,4 C 18,3 C 18,3 C 15,0 C 15,0 C 15,0 C 52 % 70 % 0 lf 200 cb 200 cb 52 cb 64 cb 1015,4 hPa 0,0 l/m 2,8 km/h (1 Bft) SO 124 60 min 0,000 mm 3,4 UV-I 352 W/m 13,8 C 19,4 C 4,8 km/h (1 Bft) 77,51 %
25.05.2024 11:25 21,2 C 19,7 C 17,2 C 19,7 C 20,6 C 17,8 C 17,8 C 14,4 C 15,0 C 15,0 C 53 % 68 % 0 lf 200 cb 200 cb 52 cb 64 cb 1015,7 hPa 0,0 l/m 2,9 km/h (1 Bft) S-SW 200 60 min 0,406 mm 2,3 UV-I 209 W/m 13,6 C 19,7 C 8,0 km/h (2 Bft) 82,20 %
25.05.2024 10:25 22,9 C 18,6 C 16,7 C 18,6 C 18,8 C 15,0 C 15,0 C 14,4 C 15,0 C 15,0 C 50 % 74 % 0 lf 200 cb 200 cb 52 cb 64 cb 1015,8 hPa 0,0 l/m 3,7 km/h (1 Bft) W 276 60 min 0,279 mm 3,0 UV-I 682 W/m 13,9 C 18,6 C 6,4 km/h (2 Bft) 55,93 %
25.05.2024 09:25 23,3 C 15,8 C 15,0 C 15,8 C 15,8 C 13,3 C 13,3 C 14,4 C 15,0 C 15,0 C 52 % 81 % 0 lf 200 cb 200 cb 52 cb 64 cb 1015,9 hPa 0,0 l/m 0,9 km/h (0 Bft) S 182 55 min 0,127 mm 1,5 UV-I 385 W/m 12,5 C 15,8 C 3,2 km/h (1 Bft) 84,87 %
25.05.2024 08:25 23,2 C 14,3 C 12,8 C 14,2 C 14,3 C 13,3 C 13,3 C 15,0 C 15,0 C 15,0 C 52 % 88 % 10 lf 200 cb 200 cb 52 cb 64 cb 1015,8 hPa 0,0 l/m 1,6 km/h (1 Bft) SO 128 55 min 0,077 mm 0,9 UV-I 223 W/m 12,3 C 14,3 C 6,4 km/h (2 Bft) 81,13 %
25.05.2024 07:25 23,1 C 11,8 C 11,1 C 11,6 C 11,8 C 13,3 C 13,3 C 15,0 C 15,0 C 15,0 C 52 % 93 % 15 lf 200 cb 200 cb 52 cb 65 cb 1015,8 hPa 0,0 l/m 1,2 km/h (1 Bft) O 96 0 min 0,025 mm 0,0 UV-I 88 W/m 10,7 C 11,8 C 3,2 km/h (1 Bft) 89,74 %
25.05.2024 06:25 23,1 C 10,4 C 10,0 C 10,4 C 10,4 C 13,3 C 13,3 C 15,0 C 15,0 C 15,0 C 52 % 94 % 15 lf 200 cb 200 cb 52 cb 64 cb 1015,8 hPa 0,0 l/m 0,4 km/h (0 Bft) O-SO 120 0 min 0,000 mm 0,0 UV-I 21 W/m 9,5 C 10,4 C 1,6 km/h (1 Bft) 86,32 %
25.05.2024 05:25 23,2 C 10,6 C 10,0 C 10,4 C 10,6 C 13,3 C 13,3 C 15,0 C 15,6 C 15,0 C 52 % 94 % 15 lf 200 cb 200 cb 52 cb 65 cb 1015,8 hPa 0,0 l/m 1,3 km/h (1 Bft) O-SO 104 0 min 0,000 mm 0,0 UV-I 0 W/m 9,7 C 10,6 C 4,8 km/h (1 Bft) 93,16 %
25.05.2024 04:25 23,2 C 10,8 C 10,0 C 10,8 C 10,8 C 13,9 C 13,9 C 15,6 C 15,6 C 15,0 C 53 % 94 % 15 lf 200 cb 200 cb 52 cb 65 cb 1015,7 hPa 0,0 l/m 0,9 km/h (0 Bft) O-SO 105 0 min 0,000 mm 0,0 UV-I 0 W/m 9,9 C 10,8 C 3,2 km/h (1 Bft) 88,98 %
25.05.2024 03:25 23,3 C 11,1 C 10,0 C 11,0 C 11,1 C 13,9 C 13,9 C 15,6 C 15,6 C 15,0 C 53 % 94 % 15 lf 200 cb 200 cb 52 cb 65 cb 1015,6 hPa 0,0 l/m 0,3 km/h (0 Bft) O 96 0 min 0,000 mm 0,0 UV-I 0 W/m 10,2 C 11,1 C 1,6 km/h (1 Bft) 85,47 %
25.05.2024 02:25 23,3 C 11,8 C 10,6 C 11,7 C 11,8 C 14,4 C 14,4 C 15,6 C 15,6 C 15,0 C 53 % 93 % 15 lf 200 cb 200 cb 52 cb 65 cb 1015,8 hPa 0,0 l/m 0,2 km/h (0 Bft) O 90 0 min 0,000 mm 0,0 UV-I 0 W/m 10,7 C 11,8 C 1,6 km/h (1 Bft) 83,76 %
25.05.2024 01:25 23,4 C 12,7 C 11,7 C 12,7 C 12,8 C 14,4 C 14,4 C 16,1 C 15,6 C 15,0 C 53 % 91 % 14 lf 200 cb 200 cb 52 cb 65 cb 1015,8 hPa 0,0 l/m 1,2 km/h (1 Bft) NO 40 0 min 0,000 mm 0,0 UV-I 0 W/m 11,3 C 12,7 C 4,8 km/h (1 Bft) 85,47 %
25.05.2024 00:25 23,4 C 13,1 C 11,7 C 13,1 C 13,2 C 15,0 C 15,0 C 16,1 C 15,6 C 15,0 C 53 % 90 % 14 lf 200 cb 200 cb 51 cb 65 cb 1015,8 hPa 0,0 l/m 2,1 km/h (1 Bft) S 191 0 min 0,000 mm 0,0 UV-I 0 W/m 11,5 C 13,1 C 6,4 km/h (2 Bft) 84,62 %
24.05.2024 23:25 23,6 C 13,5 C 12,2 C 13,4 C 13,5 C 15,0 C 15,0 C 16,1 C 15,6 C 15,0 C 53 % 91 % 14 lf 200 cb 200 cb 51 cb 66 cb 1016,2 hPa 0,0 l/m 1,2 km/h (1 Bft) SW 218 0 min 0,000 mm 0,0 UV-I 0 W/m 12,1 C 13,5 C 3,2 km/h (1 Bft) 85,47 %
24.05.2024 22:25 23,7 C 13,2 C 12,2 C 13,1 C 13,2 C 15,0 C 15,0 C 16,1 C 15,6 C 15,0 C 53 % 94 % 15 lf 200 cb 200 cb 51 cb 66 cb 1016,0 hPa 0,0 l/m 2,7 km/h (1 Bft) S 189 0 min 0,000 mm 0,0 UV-I 0 W/m 12,3 C 13,2 C 8,0 km/h (2 Bft) 90,60 %
24.05.2024 21:25 23,9 C 13,6 C 12,8 C 13,6 C 13,7 C 15,6 C 15,6 C 16,1 C 15,6 C 15,0 C 52 % 94 % 14 lf 200 cb 200 cb 51 cb 65 cb 1015,0 hPa 0,0 l/m 0,2 km/h (0 Bft) S-SW 203 0 min 0,025 mm 0,0 UV-I 0 W/m 12,7 C 13,6 C 1,6 km/h (1 Bft) 83,76 %
24.05.2024 20:25 24,3 C 14,2 C 13,3 C 14,2 C 14,6 C 16,1 C 16,1 C 16,7 C 15,6 C 15,0 C 52 % 91 % 14 lf 200 cb 200 cb 51 cb 66 cb 1014,8 hPa 0,0 l/m 0,5 km/h (0 Bft) W-NW 291 15 min 0,102 mm 0,0 UV-I 33 W/m 12,8 C 14,2 C 1,6 km/h (1 Bft) 75,42 %
24.05.2024 19:25 23,9 C 16,8 C 14,4 C 16,5 C 16,8 C 16,1 C 16,1 C 16,7 C 15,6 C 15,0 C 53 % 85 % 13 lf 200 cb 200 cb 51 cb 65 cb 1015,1 hPa 0,0 l/m 0,4 km/h (0 Bft) SO 145 55 min 0,127 mm 0,0 UV-I 232 W/m 14,3 C 16,8 C 3,2 km/h (1 Bft) 88,89 %
24.05.2024 18:25 23,5 C 15,5 C 14,4 C 15,4 C 15,5 C 16,1 C 16,1 C 16,7 C 15,6 C 15,0 C 52 % 90 % 13 lf 200 cb 200 cb 51 cb 66 cb 1014,7 hPa 1,0 l/m 1,3 km/h (1 Bft) SW 219 35 min 0,051 mm 0,7 UV-I 211 W/m 13,9 C 15,5 C 3,2 km/h (1 Bft) 90,60 %
24.05.2024 17:25 23,4 C 14,6 C 13,3 C 14,6 C 14,6 C 16,7 C 16,7 C 16,7 C 15,6 C 15,0 C 52 % 92 % 13 lf 200 cb 200 cb 51 cb 66 cb 1015,8 hPa 3,4 l/m 2,6 km/h (1 Bft) S-SO 155 0 min 0,025 mm 0,0 UV-I 65 W/m 13,3 C 14,6 C 6,4 km/h (2 Bft) 87,18 %
24.05.2024 16:25 23,5 C 14,4 C 13,3 C 14,4 C 14,5 C 17,2 C 17,2 C 16,1 C 15,6 C 15,0 C 52 % 91 % 14 lf 200 cb 200 cb 50 cb 65 cb 1015,7 hPa 5,4 l/m 1,4 km/h (1 Bft) SO 137 0 min 0,051 mm 0,0 UV-I 21 W/m 12,9 C 14,4 C 3,2 km/h (1 Bft) 82,05 %
24.05.2024 15:25 23,6 C 17,6 C 16,1 C 17,6 C 17,9 C 18,3 C 18,3 C 16,1 C 15,0 C 15,0 C 52 % 79 % 15 lf 200 cb 200 cb 50 cb 66 cb 1014,6 hPa 0,0 l/m 3,8 km/h (1 Bft) SW 215 35 min 0,152 mm 0,0 UV-I 40 W/m 13,9 C 17,6 C 9,7 km/h (2 Bft) 87,18 %
24.05.2024 14:25 23,7 C 19,4 C 17,8 C 19,4 C 19,6 C 18,9 C 18,9 C 15,6 C 15,0 C 15,0 C 51 % 70 % 0 lf 200 cb 200 cb 51 cb 65 cb 1014,7 hPa 0,0 l/m 1,6 km/h (1 Bft) SW 229 55 min 0,407 mm 1,0 UV-I 144 W/m 13,8 C 19,4 C 4,8 km/h (1 Bft) 90,60 %
24.05.2024 13:25 23,8 C 20,3 C 19,4 C 20,0 C 20,5 C 17,8 C 17,8 C 15,0 C 15,0 C 15,0 C 51 % 69 % 0 lf 200 cb 200 cb 51 cb 65 cb 1015,0 hPa 0,0 l/m 2,8 km/h (1 Bft) NW 307 25 min 0,355 mm 5,4 UV-I 1034 W/m 14,4 C 20,3 C 6,4 km/h (2 Bft) 84,62 %
24.05.2024 13:00 23,8 C 19,3 C 17,8 C 19,1 C 19,3 C 16,7 C 16,7 C 15,0 C 15,0 C 15,0 C 51 % 74 % 0 lf 200 cb 200 cb 51 cb 65 cb 1015,2 hPa 0,0 l/m 2,8 km/h (1 Bft) W 270 0 min 0,355 mm 4,5 UV-I 652 W/m 14,5 C 19,3 C 9,7 km/h (2 Bft) 83,76 %
_ Min-Zeit 11:25 04:55 04:50 04:55 05:00 05:15 05:15 08:50 13:00 13:00 10:20 13:45 13:00 13:00 13:00 14:35 16:20 14:55 - 20:55 - - - - - - 04:55 04:55 20:55 09:35
Minimum _ 21,2 C 10,3 C 9,4 C 10,3 C 10,3 C 13,3 C 13,3 C 14,4 C 15,0 C 15,0 C 50 % 64 % 0 lf 200 cb 200 cb 50 cb 64 cb 1014,4 hPa - 0,0 km/h (0 Bft) - - - - - - 9,4 C 10,3 C 0,0 km/h (0 Bft) 1,88 %
_ Max-Zeit 20:35 13:30 13:25 13:30 13:30 13:55 13:55 16:35 16:20 13:00 11:05 21:50 15:25 13:00 13:00 01:00 13:05 22:55 16:00 15:00 - - 13:00 14:00 13:05 13:25 11:00 13:30 15:00 05:30
Maximum _ 24,4 C 20,9 C 19,4 C 20,3 C 20,9 C 18,9 C 18,9 C 16,7 C 15,6 C 15,0 C 54 % 95 % 15 lf 200 cb 200 cb 52 cb 66 cb 1016,2 hPa 0,8 l/m 7,1 km/h
S-SO (2 Bft)
- - 5 min 0,407 mm 5,4 UV-I 1034 W/m 15,4 C 20,8 C 14,5 km/h
S-SO (3 Bft)
94,87 %
Durchschnitt _ 23,4 C 14,9 C 13,7 C 14,8 C 15,0 C 15,5 C 15,5 C 15,6 C 15,3 C 15,0 C 52 % 86 % 10 lf 200 cb 200 cb 51 cb 65 cb 1015,5 hPa #9,8 l/m 1,9 km/h (1 Bft) O-SO - #4:50 h #0,914 mm 2,2 UV-I 317 W/m 12,5 C 14,9 C 5,3 km/h (1 Bft) 83,37 %
copy; 2009 Dieter Kraft